CST,Max TemperatureF,Mean TemperatureF,Min TemperatureF,Max Dew PointF,MeanDew PointF,Min DewpointF,Max Humidity, Mean Humidity, Min Humidity, Max Sea Level PressureIn, Mean Sea Level PressureIn, Min Sea Level PressureIn, Max VisibilityMiles, Mean VisibilityMiles, Min VisibilityMiles, Max Wind SpeedMPH, Mean Wind SpeedMPH, Max Gust SpeedMPH,PrecipitationIn, CloudCover, Events, WindDirDegrees
2013-1-1,30,21,11,27,19,8,92,77,62,30.34,30.22,30.12,10,7,2,17,7,23,T,6,Snow,8
2013-1-2,36,23,10,27,18,7,92,81,69,30.32,30.27,30.19,10,10,7,14,6,17,0.01,1,,238
2013-1-3,36,26,15,26,21,14,100,85,69,30.48,30.42,30.28,10,8,2,10,3,13,0.00,3,,301
2013-1-4,47,31,15,26,21,15,92,67,42,30.46,30.38,30.30,10,10,10,17,8,21,0.00,0,,195
2013-1-5,46,37,27,34,28,22,82,70,58,30.28,30.22,30.13,10,10,10,20,10,23,0.00,4,,214
2013-1-6,45,35,25,23,20,18,81,60,39,30.43,30.35,30.25,10,10,10,15,7,18,0.00,0,,307
2013-1-7,50,37,23,28,23,18,88,62,36,30.33,30.21,30.09,10,10,10,22,10,26,0.00,0,,177
2013-1-8,54,43,32,36,31,25,100,71,45,30.22,30.10,30.02,10,8,0,20,10,28,0.00,0,Fog,188
2013-1-9,56,40,24,39,31,23,100,72,43,30.41,30.33,30.25,10,6,0,20,7,26,0.00,1,Fog,53
2013-1-10,52,48,43,52,47,31,100,75,50,30.22,29.90,29.78,10,3,0,23,10,30,0.39,8,Fog-Rain,130
2013-1-11,62,54,46,49,46,36,93,74,55,29.79,29.72,29.63,10,9,6,30,17,36,0.00,4,,189
2013-1-12,59,41,22,34,22,12,85,57,29,30.09,30.00,29.83,10,7,1,24,14,29,0.00,8,Rain-Snow,355
2013-1-13,29,22,15,13,10,8,74,60,46,30.41,30.28,30.13,10,10,10,20,8,23,0.00,0,,336
2013-1-14,30,21,12,12,10,8,84,64,43,30.52,30.45,30.39,10,10,10,9,4,,0.05,1,,41
2013-1-15,33,24,15,16,12,8,84,64,43,30.40,30.32,30.24,10,10,10,10,4,14,0.00,2,,46
2013-1-16,46,31,15,26,18,11,80,57,34,30.23,30.17,30.07,10,10,10,17,8,21,0.00,1,,229
2013-1-17,50,39,28,30,27,24,85,64,42,30.49,30.42,30.22,10,10,10,14,7,17,0.00,0,,1
2013-1-18,57,43,29,31,28,24,85,60,35,30.46,30.29,30.10,10,10,10,25,13,30,0.00,0,,190
2013-1-19,64,51,37,34,31,26,82,56,29,30.23,30.11,30.05,10,10,10,18,10,25,0.00,0,,231
2013-1-20,49,38,27,28,19,10,70,49,28,30.39,30.29,30.22,10,10,10,17,9,81,0.00,0,,39
2013-1-21,35,26,16,13,11,7,74,58,41,30.46,30.41,30.36,10,10,9,16,7,48,0.00,0,,22
2013-1-22,39,28,17,18,13,7,68,54,40,30.38,30.32,30.25,10,10,10,14,7,18,0.00,0,,86
2013-1-23,55,36,17,31,23,14,92,65,38,30.34,30.25,30.17,10,10,9,18,4,24,0.00,0,,15
2013-1-24,32,26,20,20,13,8,67,57,46,30.43,30.31,30.18,10,10,10,17,10,25,0.00,5,,58
2013-1-25,49,38,26,25,20,15,69,52,34,30.28,30.22,30.16,10,10,9,9,4,12,0.00,3,,338
2013-1-26,60,46,32,28,24,18,75,48,21,30.29,30.19,30.07,10,10,9,17,8,22,T,3,Rain,154
2013-1-27,63,53,43,56,46,32,93,71,49,30.08,29.91,29.80,10,9,6,31,19,41,T,8,Rain,174
2013-1-28,75,66,56,61,58,55,100,79,57,29.88,29.80,29.68,10,8,5,30,20,39,0.00,4,,191
2013-1-29,68,53,37,61,48,35,100,88,76,29.70,29.58,29.45,10,5,1,29,12,37,1.97,7,Rain-Thunderstorm,319
2013-1-30,37,29,21,34,25,17,92,78,63,30.05,29.79,29.57,10,9,2,32,17,41,T,7,Rain-Snow,306
2013-1-31,33,24,14,21,15,4,88,67,46,30.52,30.23,29.98,10,10,2,24,10,31,T,2,Snow,322